KMOB/MOB METAR and TAF weather

Enter ICAO airport designator
Station Type Date Time Source
KMOB METAR 2020/09/18 22:56 UTC NOAA

KMOB 182256Z 35007KT 10SM FEW050 SCT100 SCT220 24/22 A2995 RMK AO2 RAB36E50 SLP140 P0000 T02390217


Station Type Date Time Source
KMOB Decoded METAR 2020/09/18 22:56 UTC NOAA

MOBILE REGIONAL AIRPORT, AL, United States (KMOB) 30-41N 88-14W 67M
Sep 18, 2020 - 06:56 PM EDT / 2020.09.18 2256 UTC
Wind: from the N (350 degrees) at 8 MPH (7 KT):0
Visibility: 10 mile(s):0
Sky conditions: partly cloudy
Precipitation last hour: A trace
Temperature: 75.0 F (23.9 C)
Dew Point: 71.1 F (21.7 C)
Relative Humidity: 87%
Pressure (altimeter): 29.95 in. Hg (1014 hPa)
ob: KMOB 182256Z 35007KT 10SM FEW050 SCT100 SCT220 24/22 A2995 RMK AO2 RAB36E50 SLP140 P0000 T02390217
cycle: 23

Station Type Date Time Source
KMOB TAF 2020/09/18 18:30 UTC NOAA

TAF KMOB 181728Z 1818/1918 36009KT P6SM BKN180
FM190500 03005KT P6SM OVC100 PROB30 1912/1913 4SM SHRA OVC025
FM191300 04006KT P6SM OVC035 PROB30 1913/1914 4SM SHRA OVC025
FM191400 05008KT P6SM OVC029 PROB30 1914/1918 4SM SHRA OVC015

Example: see airport list